Time;durP1;ratioP1;P1;durP2;ratioP2;P2;SDS_P1;SDS_P2;PMS_P1;PMS_P2;Temp;Humidity;BMP_temperature;BMP_pressure;BME280_temperature;BME280_humidity;BME280_pressure;Samples;Min_cycle;Max_cycle;Signal;HPM_P1;HPM_P2
2023/11/19 00:00:28;;;;;;;;;;;;;;;;;;4963652;28;19917;-69
2023/11/19 00:02:54;;;;;;;;;;;;;;;;;;4967744;28;19913;-69
2023/11/19 00:05:20;;;;;;;;;;;;;;;;;;4982494;28;19944;-69
2023/11/19 00:07:46;;;;;;;;;;;;;;;;;;4967931;28;19973;-69
2023/11/19 00:10:12;;;;;;;;;;;;;;;;;;4981755;28;19923;-69
2023/11/19 00:12:38;;;;;;;;;;;;;;;;;;4977484;28;19917;-69
2023/11/19 00:15:04;;;;;;;;;;;;;;;;;;4965187;28;19917;-69
2023/11/19 00:17:30;;;;;;;;;;;;;;;;;;4977161;28;19929;-69
2023/11/19 00:19:56;;;;;;;;;;;;;;;;;;4979442;28;20313;-69
2023/11/19 00:22:22;;;;;;;;;;;;;;;;;;4977780;28;19917;-69
2023/11/19 00:24:48;;;;;;;;;;;;;;;;;;4980312;28;20328;-69
2023/11/19 00:27:15;;;;;;;;;;;;;;;;;;4979835;28;19928;-70
2023/11/19 00:29:42;;;;;;;;;;;;;;;;;;4978439;28;20299;-69
2023/11/19 00:32:08;;;;;;;;;;;;;;;;;;4981011;28;20254;-69
2023/11/19 00:34:34;;;;;;;;;;;;;;;;;;4978174;28;20455;-69
2023/11/19 00:37:00;;;;;;;;;;;;;;;;;;4964013;28;20470;-69
2023/11/19 00:39:26;;;;;;;;;;;;;;;;;;4963151;28;19918;-69
2023/11/19 00:41:52;;;;;;;;;;;;;;;;;;4966758;28;19921;-69
2023/11/19 00:44:19;;;;;;;;;;;;;;;;;;4980357;28;19921;-69
2023/11/19 00:46:45;;;;;;;;;;;;;;;;;;4963879;28;19925;-69
2023/11/19 00:49:11;;;;;;;;;;;;;;;;;;4961745;28;19929;-69
2023/11/19 00:51:37;;;;;;;;;;;;;;;;;;4959652;28;19920;-69
2023/11/19 00:54:03;;;;;;;;;;;;;;;;;;4962892;28;19914;-69
2023/11/19 00:56:29;;;;;;;;;;;;;;;;;;4962998;28;19980;-69
2023/11/19 00:58:55;;;;;;;;;;;;;;;;;;4963036;28;20392;-69
2023/11/19 01:01:22;;;;;;;;;;;;;;;;;;4959955;28;20236;-69
2023/11/19 01:03:47;;;;;;;;;;;;;;;;;;4960948;28;19917;-69
2023/11/19 01:06:15;;;;;;;;;;;;;;;;;;4958010;28;19981;-69
2023/11/19 01:08:41;;;;;;;;;;;;;;;;;;4958464;28;20427;-69
2023/11/19 01:11:08;;;;;;;;;;;;;;;;;;4960631;28;20399;-69
2023/11/19 01:13:34;;;;;;;;;;;;;;;;;;4959712;28;19918;-69
2023/11/19 01:16:02;;;;;;;;;;;;;;;;;;4961701;28;20129;-69
2023/11/19 01:18:28;;;;;;;;;;;;;;;;;;4956425;28;20033;-70
2023/11/19 01:20:54;;;;;;;;;;;;;;;;;;4964137;28;20206;-69
2023/11/19 01:23:19;;;;;;;;;;;;;;;;;;4959550;28;19922;-70
2023/11/19 01:25:45;;;;;;;;;;;;;;;;;;4958388;28;20376;-69
2023/11/19 01:28:11;;;;;;;;;;;;;;;;;;4960582;28;20459;-69
2023/11/19 01:30:37;;;;;;;;;;;;;;;;;;4957265;28;20291;-69
2023/11/19 01:33:03;;;;;;;;;;;;;;;;;;4956403;28;20300;-69
2023/11/19 01:35:29;;;;;;;;;;;;;;;;;;4958104;28;20051;-69
2023/11/19 01:37:55;;;;;;;;;;;;;;;;;;4962548;28;20479;-70
2023/11/19 01:40:22;;;;;;;;;;;;;;;;;;4957739;28;20428;-69
2023/11/19 01:42:49;;;;;;;;;;;;;;;;;;4965336;28;20098;-69
2023/11/19 01:45:15;;;;;;;;;;;;;;;;;;4962697;28;19926;-69
2023/11/19 01:47:41;;;;;;;;;;;;;;;;;;4957658;28;20477;-69
2023/11/19 01:50:07;;;;;;;;;;;;;;;;;;4973321;28;19929;-69
2023/11/19 01:52:33;;;;;;;;;;;;;;;;;;4963153;28;20048;-69
2023/11/19 01:54:59;;;;;;;;;;;;;;;;;;4980082;28;20407;-70
2023/11/19 01:57:25;;;;;;;;;;;;;;;;;;4979131;28;19917;-70
2023/11/19 01:59:51;;;;;;;;;;;;;;;;;;4975814;28;19987;-69
2023/11/19 02:02:20;;;;;;;;;;;;;;;;;;4976972;28;20390;-70
2023/11/19 02:04:46;;;;;;;;;;;;;;;;;;4978422;28;19917;-69
2023/11/19 02:07:14;;;;;;;;;;;;;;;;;;4963024;28;19931;-69
2023/11/19 02:09:40;;;;;;;;;;;;;;;;;;4977875;28;19987;-69
2023/11/19 02:12:06;;;;;;;;;;;;;;;;;;4981840;28;20012;-69
2023/11/19 02:14:32;;;;;;;;;;;;;;;;;;4975242;28;20276;-69
2023/11/19 02:16:58;;;;;;;;;;;;;;;;;;4964316;28;19917;-69
2023/11/19 02:19:24;;;;;;;;;;;;;;;;;;4960402;28;20340;-69
2023/11/19 02:21:50;;;;;;;;;;;;;;;;;;4981419;28;19925;-69
2023/11/19 02:24:16;;;;;;;;;;;;;;;;;;4977811;28;20074;-69
2023/11/19 02:26:42;;;;;;;;;;;;;;;;;;4974606;28;19956;-69
2023/11/19 02:29:08;;;;;;;;;;;;;;;;;;4979381;28;19973;-69
2023/11/19 02:31:34;;;;;;;;;;;;;;;;;;4973965;28;20257;-69
2023/11/19 02:34:02;;;;;;;;;;;;;;;;;;4980619;28;20004;-69
2023/11/19 02:36:28;;;;;;;;;;;;;;;;;;4978941;28;19923;-69
2023/11/19 02:38:54;;;;;;;;;;;;;;;;;;4980863;28;19917;-69
2023/11/19 02:41:20;;;;;;;;;;;;;;;;;;4976746;28;19948;-69
2023/11/19 02:43:48;;;;;;;;;;;;;;;;;;4979924;28;19971;-70
2023/11/19 02:46:15;;;;;;;;;;;;;;;;;;4980590;28;19921;-70
2023/11/19 02:48:41;;;;;;;;;;;;;;;;;;4974050;28;20097;-69
2023/11/19 02:51:11;;;;;;;;;;;;;;;;;;4980582;28;19925;-70
2023/11/19 02:53:40;;;;;;;;;;;;;;;;;;4963930;28;20062;-70
2023/11/19 02:56:19;;;;;;;;;;;;;;;;;;4960440;28;19917;-71
2023/11/19 02:58:46;;;;;;;;;;;;;;;;;;4957921;28;20199;-72
2023/11/19 03:01:30;;;;;;;;;;;;;;;;;;4981522;28;19925;-72
2023/11/19 03:03:56;;;;;;;;;;;;;;;;;;4977537;28;19917;-72
2023/11/19 03:06:22;;;;;;;;;;;;;;;;;;4972953;28;19928;-73
2023/11/19 03:08:48;;;;;;;;;;;;;;;;;;4976503;28;20283;-72
2023/11/19 03:11:14;;;;;;;;;;;;;;;;;;4972943;28;20512;-73
2023/11/19 03:13:40;;;;;;;;;;;;;;;;;;4961972;28;19921;-73
2023/11/19 03:16:06;;;;;;;;;;;;;;;;;;4962412;28;20331;-72
2023/11/19 03:18:32;;;;;;;;;;;;;;;;;;4967178;28;20292;-73
2023/11/19 03:20:58;;;;;;;;;;;;;;;;;;4981441;28;20135;-73
2023/11/19 03:23:27;;;;;;;;;;;;;;;;;;4982941;28;20405;-72
2023/11/19 03:25:53;;;;;;;;;;;;;;;;;;4977504;28;19918;-73
2023/11/19 03:28:19;;;;;;;;;;;;;;;;;;4970434;28;19918;-73
2023/11/19 03:30:45;;;;;;;;;;;;;;;;;;4963800;28;20423;-72
2023/11/19 03:33:11;;;;;;;;;;;;;;;;;;4985483;28;19917;-73
2023/11/19 03:35:37;;;;;;;;;;;;;;;;;;4977901;28;19959;-73
2023/11/19 03:38:03;;;;;;;;;;;;;;;;;;4970972;28;19918;-73
2023/11/19 03:40:29;;;;;;;;;;;;;;;;;;4965171;28;19918;-73
2023/11/19 03:42:55;;;;;;;;;;;;;;;;;;4985177;28;20431;-72
2023/11/19 03:45:21;;;;;;;;;;;;;;;;;;4966100;28;19924;-73
2023/11/19 03:47:49;;;;;;;;;;;;;;;;;;4978031;28;19932;-72
2023/11/19 03:50:16;;;;;;;;;;;;;;;;;;4949988;28;19957;-73
2023/11/19 03:52:42;;;;;;;;;;;;;;;;;;4943123;28;21108;-72
2023/11/19 03:55:08;;;;;;;;;;;;;;;;;;4949835;28;21582;-73
2023/11/19 03:57:34;;;;;;;;;;;;;;;;;;4931486;28;20620;-73
2023/11/19 04:00:05;;;;;;;;;;;;;;;;;;4935464;28;20012;-73
2023/11/19 04:02:31;;;;;;;;;;;;;;;;;;4947896;28;19932;-73
2023/11/19 04:04:57;;;;;;;;;;;;;;;;;;4935610;28;19917;-72
2023/11/19 04:07:23;;;;;;;;;;;;;;;;;;4931799;28;19921;-73
2023/11/19 04:09:49;;;;;;;;;;;;;;;;;;4946119;28;19918;-73
2023/11/19 04:12:15;;;;;;;;;;;;;;;;;;4948863;28;20153;-73
2023/11/19 04:14:41;;;;;;;;;;;;;;;;;;4933629;28;20509;-72
2023/11/19 04:17:07;;;;;;;;;;;;;;;;;;4945597;28;20016;-72
2023/11/19 04:19:33;;;;;;;;;;;;;;;;;;4946541;28;20445;-72
2023/11/19 04:21:59;;;;;;;;;;;;;;;;;;4953004;28;20489;-72
2023/11/19 04:24:25;;;;;;;;;;;;;;;;;;4948786;28;20012;-72
2023/11/19 04:26:52;;;;;;;;;;;;;;;;;;4958013;28;20364;-72
2023/11/19 04:29:19;;;;;;;;;;;;;;;;;;4973261;28;20374;-72
2023/11/19 04:31:45;;;;;;;;;;;;;;;;;;4966164;28;19921;-72
2023/11/19 04:34:11;;;;;;;;;;;;;;;;;;4970264;28;19917;-72
2023/11/19 04:36:37;;;;;;;;;;;;;;;;;;4985739;28;19938;-72
2023/11/19 04:39:08;;;;;;;;;;;;;;;;;;4988743;28;19917;-72
2023/11/19 04:41:34;;;;;;;;;;;;;;;;;;4984599;28;19918;-71
2023/11/19 04:44:00;;;;;;;;;;;;;;;;;;4966835;28;20457;-71
2023/11/19 04:46:26;;;;;;;;;;;;;;;;;;4968129;28;19926;-73
2023/11/19 04:48:52;;;;;;;;;;;;;;;;;;4986226;28;20162;-73
2023/11/19 04:51:18;;;;;;;;;;;;;;;;;;4987605;28;20302;-73
2023/11/19 04:53:44;;;;;;;;;;;;;;;;;;4978552;28;19924;-73
2023/11/19 04:56:10;;;;;;;;;;;;;;;;;;4988776;28;20399;-73
2023/11/19 04:58:37;;;;;;;;;;;;;;;;;;4983047;28;19917;-71
2023/11/19 05:01:03;;;;;;;;;;;;;;;;;;4990776;28;19979;-71
2023/11/19 05:03:29;;;;;;;;;;;;;;;;;;4981941;28;20009;-72
2023/11/19 05:05:55;;;;;;;;;;;;;;;;;;4985933;28;19917;-72
2023/11/19 05:08:21;;;;;;;;;;;;;;;;;;4986054;28;19917;-72
2023/11/19 05:10:47;;;;;;;;;;;;;;;;;;4982512;28;20407;-71
2023/11/19 05:13:13;;;;;;;;;;;;;;;;;;4969091;28;19918;-72
2023/11/19 05:15:39;;;;;;;;;;;;;;;;;;4985879;28;19918;-71
2023/11/19 05:18:05;;;;;;;;;;;;;;;;;;4984715;28;19917;-71
2023/11/19 05:20:31;;;;;;;;;;;;;;;;;;4968379;28;19932;-72
2023/11/19 05:22:56;;;;;;;;;;;;;;;;;;4968290;28;19968;-71
2023/11/19 05:25:22;;;;;;;;;;;;;;;;;;4984259;28;20013;-71
2023/11/19 05:27:48;;;;;;;;;;;;;;;;;;4989102;28;20584;-71
2023/11/19 05:30:15;;;;;;;;;;;;;;;;;;4986826;28;20016;-72
2023/11/19 05:32:41;;;;;;;;;;;;;;;;;;4979243;28;19917;-72
2023/11/19 05:35:08;;;;;;;;;;;;;;;;;;4988913;28;19971;-72
2023/11/19 05:37:34;;;;;;;;;;;;;;;;;;4981819;28;20273;-72
2023/11/19 05:40:03;;;;;;;;;;;;;;;;;;4974304;28;19924;-71
2023/11/19 05:42:29;;;;;;;;;;;;;;;;;;4979859;28;20443;-74
2023/11/19 05:44:55;;;;;;;;;;;;;;;;;;4971502;28;20440;-72
2023/11/19 05:47:20;;;;;;;;;;;;;;;;;;4984908;28;20184;-71
2023/11/19 05:49:46;;;;;;;;;;;;;;;;;;4987754;28;20160;-72
2023/11/19 05:52:12;;;;;;;;;;;;;;;;;;4968955;28;20149;-72
2023/11/19 05:54:38;;;;;;;;;;;;;;;;;;4985062;28;19968;-72
2023/11/19 05:57:04;;;;;;;;;;;;;;;;;;4988194;28;19924;-72
2023/11/19 05:59:30;;;;;;;;;;;;;;;;;;4986841;28;20024;-72
2023/11/19 06:01:56;;;;;;;;;;;;;;;;;;4971191;28;19951;-73
2023/11/19 06:04:22;;;;;;;;;;;;;;;;;;4984760;28;19921;-72
2023/11/19 06:06:48;;;;;;;;;;;;;;;;;;4968293;28;19933;-72
2023/11/19 06:09:14;;;;;;;;;;;;;;;;;;4986475;28;20379;-72
2023/11/19 06:11:40;;;;;;;;;;;;;;;;;;4966010;28;20030;-72
2023/11/19 06:14:07;;;;;;;;;;;;;;;;;;4970631;28;20342;-72
2023/11/19 06:16:33;;;;;;;;;;;;;;;;;;4963500;28;20642;-72
2023/11/19 06:18:59;;;;;;;;;;;;;;;;;;4986050;28;19917;-73
2023/11/19 06:21:25;;;;;;;;;;;;;;;;;;4980633;28;19927;-73
2023/11/19 06:23:53;;;;;;;;;;;;;;;;;;4985889;28;20418;-72
2023/11/19 06:26:19;;;;;;;;;;;;;;;;;;4984997;28;20592;-72
2023/11/19 06:28:47;;;;;;;;;;;;;;;;;;4982994;28;20138;-73
2023/11/19 06:31:16;;;;;;;;;;;;;;;;;;4972521;28;19917;-73
2023/11/19 06:33:41;;;;;;;;;;;;;;;;;;4966758;28;19921;-73
2023/11/19 06:36:08;;;;;;;;;;;;;;;;;;4971571;28;19921;-73
2023/11/19 06:38:34;;;;;;;;;;;;;;;;;;4981462;28;19925;-73
2023/11/19 06:41:01;;;;;;;;;;;;;;;;;;4986156;28;20256;-73
2023/11/19 06:43:27;;;;;;;;;;;;;;;;;;4968570;28;20788;-72
2023/11/19 06:45:53;;;;;;;;;;;;;;;;;;4985536;28;19928;-73
2023/11/19 06:48:19;;;;;;;;;;;;;;;;;;4986222;28;20012;-73
2023/11/19 06:50:45;;;;;;;;;;;;;;;;;;4982030;28;19929;-72
2023/11/19 06:53:11;;;;;;;;;;;;;;;;;;4964352;28;19929;-74
2023/11/19 06:55:37;;;;;;;;;;;;;;;;;;4962045;28;19918;-74
2023/11/19 06:58:03;;;;;;;;;;;;;;;;;;4967891;28;20373;-71
2023/11/19 07:00:29;;;;;;;;;;;;;;;;;;4963379;28;20307;-71
2023/11/19 07:02:55;;;;;;;;;;;;;;;;;;4971782;28;19918;-74
2023/11/19 07:05:21;;;;;;;;;;;;;;;;;;4959567;28;19917;-74
2023/11/19 07:07:47;;;;;;;;;;;;;;;;;;4965660;28;19928;-73
2023/11/19 07:10:13;;;;;;;;;;;;;;;;;;4966470;28;19972;-73
2023/11/19 07:12:39;;;;;;;;;;;;;;;;;;4963049;28;19921;-73
2023/11/19 07:15:05;;;;;;;;;;;;;;;;;;4968246;28;20284;-73
2023/11/19 07:17:31;;;;;;;;;;;;;;;;;;4962210;28;20085;-73
2023/11/19 07:19:59;;;;;;;;;;;;;;;;;;4964803;28;20035;-73
2023/11/19 07:22:25;;;;;;;;;;;;;;;;;;4964218;28;19929;-73
2023/11/19 07:24:53;;;;;;;;;;;;;;;;;;4962081;28;19917;-74
2023/11/19 07:27:19;;;;;;;;;;;;;;;;;;4959517;28;19928;-73
2023/11/19 07:29:45;;;;;;;;;;;;;;;;;;4965469;28;19917;-74
2023/11/19 07:32:11;;;;;;;;;;;;;;;;;;4964885;28;20284;-73
2023/11/19 07:34:37;;;;;;;;;;;;;;;;;;4961430;28;19925;-73
2023/11/19 07:37:03;;;;;;;;;;;;;;;;;;4965108;28;20078;-74
2023/11/19 07:39:29;;;;;;;;;;;;;;;;;;4977016;28;20036;-73
2023/11/19 07:41:55;;;;;;;;;;;;;;;;;;4967398;28;20418;-72
2023/11/19 07:44:24;;;;;;;;;;;;;;;;;;4960357;28;20521;-72
2023/11/19 07:46:50;;;;;;;;;;;;;;;;;;4964378;28;19971;-72
2023/11/19 07:49:16;;;;;;;;;;;;;;;;;;4969266;28;20134;-72
2023/11/19 07:51:42;;;;;;;;;;;;;;;;;;4980971;28;20314;-73
2023/11/19 07:54:08;;;;;;;;;;;;;;;;;;4986076;28;19925;-72
2023/11/19 07:56:35;;;;;;;;;;;;;;;;;;4970182;28;19913;-73
2023/11/19 07:59:01;;;;;;;;;;;;;;;;;;4993826;28;19968;-73
2023/11/19 08:01:27;;;;;;;;;;;;;;;;;;4990417;28;19918;-73
2023/11/19 08:03:53;;;;;;;;;;;;;;;;;;4991203;28;20710;-72
2023/11/19 08:06:19;;;;;;;;;;;;;;;;;;4985584;28;20003;-72
2023/11/19 08:08:45;;;;;;;;;;;;;;;;;;4987401;28;19922;-73
2023/11/19 08:11:11;;;;;;;;;;;;;;;;;;4986351;28;19917;-72
2023/11/19 08:13:37;;;;;;;;;;;;;;;;;;4987193;28;19918;-72
2023/11/19 08:16:03;;;;;;;;;;;;;;;;;;4974678;28;19925;-74
2023/11/19 08:18:29;;;;;;;;;;;;;;;;;;4985034;28;20456;-72
2023/11/19 08:20:56;;;;;;;;;;;;;;;;;;4973704;28;19931;-72
2023/11/19 08:23:24;;;;;;;;;;;;;;;;;;4989050;28;19988;-72
2023/11/19 08:25:50;;;;;;;;;;;;;;;;;;4986966;28;19925;-71
2023/11/19 08:28:16;;;;;;;;;;;;;;;;;;4971990;28;19925;-72
2023/11/19 08:30:43;;;;;;;;;;;;;;;;;;4982666;28;19917;-72
2023/11/19 08:33:09;;;;;;;;;;;;;;;;;;4988454;28;20233;-72
2023/11/19 08:35:35;;;;;;;;;;;;;;;;;;4986272;28;20058;-72
2023/11/19 08:38:01;;;;;;;;;;;;;;;;;;4988564;28;20057;-72
2023/11/19 08:40:27;;;;;;;;;;;;;;;;;;4983750;28;20321;-72
2023/11/19 08:42:53;;;;;;;;;;;;;;;;;;4980795;28;20233;-72
2023/11/19 08:45:19;;;;;;;;;;;;;;;;;;4987086;28;20628;-73
2023/11/19 08:47:45;;;;;;;;;;;;;;;;;;4978513;28;20392;-72
2023/11/19 08:50:11;;;;;;;;;;;;;;;;;;4985860;28;20024;-72
2023/11/19 08:52:37;;;;;;;;;;;;;;;;;;4982890;28;20337;-72
2023/11/19 08:55:05;;;;;;;;;;;;;;;;;;4971514;28;19917;-71
2023/11/19 08:57:31;;;;;;;;;;;;;;;;;;4981929;28;20114;-72
2023/11/19 08:59:57;;;;;;;;;;;;;;;;;;4965305;28;20087;-71
2023/11/19 09:02:23;;;;;;;;;;;;;;;;;;4964279;28;19917;-72
2023/11/19 09:04:49;;;;;;;;;;;;;;;;;;4984006;28;20298;-72
2023/11/19 09:07:14;;;;;;;;;;;;;;;;;;4964572;28;19974;-72
2023/11/19 09:09:40;;;;;;;;;;;;;;;;;;4963840;28;20419;-72
2023/11/19 09:12:07;;;;;;;;;;;;;;;;;;4980075;28;19913;-72
2023/11/19 09:14:33;;;;;;;;;;;;;;;;;;4967079;28;20534;-69
2023/11/19 09:16:59;;;;;;;;;;;;;;;;;;4985652;28;19935;-73
2023/11/19 09:19:26;;;;;;;;;;;;;;;;;;4963509;28;19921;-73
2023/11/19 09:21:52;;;;;;;;;;;;;;;;;;4985278;28;19921;-73
2023/11/19 09:24:18;;;;;;;;;;;;;;;;;;4969680;28;19925;-73
2023/11/19 09:26:44;;;;;;;;;;;;;;;;;;4964886;28;20229;-73
2023/11/19 09:29:11;;;;;;;;;;;;;;;;;;4984450;28;20306;-73
2023/11/19 09:31:37;;;;;;;;;;;;;;;;;;4976013;28;19918;-73
2023/11/19 09:34:03;;;;;;;;;;;;;;;;;;4978915;28;20480;-73
2023/11/19 09:36:29;;;;;;;;;;;;;;;;;;4976493;28;20362;-73
2023/11/19 09:38:55;;;;;;;;;;;;;;;;;;4978479;28;19918;-72
2023/11/19 09:41:20;;;;;;;;;;;;;;;;;;4960911;28;19986;-72
2023/11/19 09:43:46;;;;;;;;;;;;;;;;;;4977358;28;20446;-74
2023/11/19 09:46:13;;;;;;;;;;;;;;;;;;4983399;28;20001;-71
2023/11/19 09:48:42;;;;;;;;;;;;;;;;;;4984310;28;19929;-73
2023/11/19 09:51:08;;;;;;;;;;;;;;;;;;4986646;28;19936;-73
2023/11/19 09:53:34;;;;;;;;;;;;;;;;;;4980542;28;19940;-73
2023/11/19 09:56:02;;;;;;;;;;;;;;;;;;4983801;28;20294;-73
2023/11/19 09:58:28;;;;;;;;;;;;;;;;;;4973329;28;19917;-73
2023/11/19 10:00:54;;;;;;;;;;;;;;;;;;4975027;28;19944;-73
2023/11/19 10:03:20;;;;;;;;;;;;;;;;;;4959615;28;19925;-73
2023/11/19 10:05:46;;;;;;;;;;;;;;;;;;4979726;28;20368;-73
2023/11/19 10:08:13;;;;;;;;;;;;;;;;;;4978815;28;20720;-72
2023/11/19 10:10:39;;;;;;;;;;;;;;;;;;4972109;28;20549;-74
2023/11/19 10:13:08;;;;;;;;;;;;;;;;;;4977141;28;20299;-73
2023/11/19 10:15:34;;;;;;;;;;;;;;;;;;4977059;28;20159;-73
2023/11/19 10:18:00;;;;;;;;;;;;;;;;;;4972121;28;20614;-73
2023/11/19 10:20:26;;;;;;;;;;;;;;;;;;4978622;28;19928;-73
2023/11/19 10:22:52;;;;;;;;;;;;;;;;;;4963050;28;20599;-73
2023/11/19 10:25:17;;;;;;;;;;;;;;;;;;4977513;28;20448;-73
2023/11/19 10:27:43;;;;;;;;;;;;;;;;;;4972655;28;19922;-73
2023/11/19 10:30:10;;;;;;;;;;;;;;;;;;4975979;28;19917;-73
2023/11/19 10:32:36;;;;;;;;;;;;;;;;;;4959692;28;19961;-72
2023/11/19 10:35:02;;;;;;;;;;;;;;;;;;4961812;28;20028;-72
2023/11/19 10:37:32;;;;;;;;;;;;;;;;;;4975745;28;19971;-72
2023/11/19 10:39:58;;;;;;;;;;;;;;;;;;4976647;28;19975;-72
2023/11/19 10:42:24;;;;;;;;;;;;;;;;;;4975348;28;19929;-72
2023/11/19 10:44:50;;;;;;;;;;;;;;;;;;4977428;28;20234;-72
2023/11/19 10:47:19;;;;;;;;;;;;;;;;;;4974372;28;20351;-72
2023/11/19 10:49:48;;;;;;;;;;;;;;;;;;4973262;28;20341;-72
2023/11/19 10:52:14;;;;;;;;;;;;;;;;;;4945413;28;19922;-71
2023/11/19 10:54:40;;;;;;;;;;;;;;;;;;4951561;28;20241;-71
2023/11/19 10:57:06;;;;;;;;;;;;;;;;;;4966004;28;20654;-72
2023/11/19 10:59:32;;;;;;;;;;;;;;;;;;4961659;28;19925;-72
2023/11/19 11:01:58;;;;;;;;;;;;;;;;;;4963047;28;19917;-71
2023/11/19 11:04:25;;;;;;;;;;;;;;;;;;4961409;28;19918;-71
2023/11/19 11:06:51;;;;;;;;;;;;;;;;;;4963698;28;19925;-71
2023/11/19 11:09:17;;;;;;;;;;;;;;;;;;4965532;28;19917;-71
2023/11/19 11:11:43;;;;;;;;;;;;;;;;;;4960627;28;19930;-71
2023/11/19 11:14:09;;;;;;;;;;;;;;;;;;4967906;28;20355;-71
2023/11/19 11:16:36;;;;;;;;;;;;;;;;;;4961829;28;19921;-71
2023/11/19 11:19:01;;;;;;;;;;;;;;;;;;4967500;28;20512;-71
2023/11/19 11:21:27;;;;;;;;;;;;;;;;;;4965852;28;19922;-72
2023/11/19 11:23:54;;;;;;;;;;;;;;;;;;4965624;28;19925;-73
2023/11/19 11:26:20;;;;;;;;;;;;;;;;;;4965423;28;20402;-71
2023/11/19 11:28:46;;;;;;;;;;;;;;;;;;4958500;28;20009;-71
2023/11/19 11:31:12;;;;;;;;;;;;;;;;;;4935960;28;20222;-70
2023/11/19 11:33:38;;;;;;;;;;;;;;;;;;4934255;28;19918;-70
2023/11/19 11:36:05;;;;;;;;;;;;;;;;;;4938615;28;20340;-70
2023/11/19 11:38:31;;;;;;;;;;;;;;;;;;4933434;28;20164;-72
2023/11/19 11:40:57;;;;;;;;;;;;;;;;;;4951875;28;19922;-72
2023/11/19 11:43:23;;;;;;;;;;;;;;;;;;4936128;28;21243;-73
2023/11/19 11:45:48;;;;;;;;;;;;;;;;;;4935520;28;21479;-71
2023/11/19 11:48:15;;;;;;;;;;;;;;;;;;4931684;28;19922;-71
2023/11/19 11:50:42;;;;;;;;;;;;;;;;;;4948843;28;19956;-70
2023/11/19 11:53:08;;;;;;;;;;;;;;;;;;4955169;28;20276;-72
2023/11/19 11:55:34;;;;;;;;;;;;;;;;;;4952581;28;20759;-71
2023/11/19 11:58:00;;;;;;;;;;;;;;;;;;4955311;28;20170;-73
2023/11/19 12:00:26;;;;;;;;;;;;;;;;;;4937767;28;19929;-72
2023/11/19 12:02:52;;;;;;;;;;;;;;;;;;4954536;28;19922;-71
2023/11/19 12:05:18;;;;;;;;;;;;;;;;;;4952360;28;20007;-71
2023/11/19 12:07:44;;;;;;;;;;;;;;;;;;4972126;28;19949;-72
2023/11/19 12:10:16;;;;;;;;;;;;;;;;;;4973865;28;19925;-72
2023/11/19 12:12:42;;;;;;;;;;;;;;;;;;4968717;28;19918;-71
2023/11/19 12:15:10;;;;;;;;;;;;;;;;;;4991948;28;20863;-72
2023/11/19 12:17:36;;;;;;;;;;;;;;;;;;4970270;28;19917;-71
2023/11/19 12:20:03;;;;;;;;;;;;;;;;;;4988109;28;20000;-72
2023/11/19 12:22:28;;;;;;;;;;;;;;;;;;4970139;28;19980;-71
2023/11/19 12:24:54;;;;;;;;;;;;;;;;;;4988598;28;20039;-71
2023/11/19 12:27:22;;;;;;;;;;;;;;;;;;4986013;28;19929;-71
2023/11/19 12:29:48;;;;;;;;;;;;;;;;;;4988444;28;19918;-71
2023/11/19 12:32:14;;;;;;;;;;;;;;;;;;4988765;28;20256;-71
2023/11/19 12:34:40;;;;;;;;;;;;;;;;;;4983776;28;20527;-71
2023/11/19 12:37:06;;;;;;;;;;;;;;;;;;4988493;28;19918;-71
2023/11/19 12:39:32;;;;;;;;;;;;;;;;;;4985507;28;20615;-71
2023/11/19 12:42:01;;;;;;;;;;;;;;;;;;4985439;28;20388;-71
2023/11/19 12:44:27;;;;;;;;;;;;;;;;;;4982746;28;20439;-72
2023/11/19 12:46:53;;;;;;;;;;;;;;;;;;4985774;28;20380;-72
2023/11/19 12:49:19;;;;;;;;;;;;;;;;;;4963520;28;19930;-71
2023/11/19 12:51:45;;;;;;;;;;;;;;;;;;4970696;28;19945;-71
2023/11/19 12:54:12;;;;;;;;;;;;;;;;;;4970531;28;20379;-70
2023/11/19 12:56:38;;;;;;;;;;;;;;;;;;4968504;28;19918;-71
2023/11/19 12:59:04;;;;;;;;;;;;;;;;;;4965972;28;19921;-70
2023/11/19 13:01:30;;;;;;;;;;;;;;;;;;4965806;28;19928;-71
2023/11/19 13:03:56;;;;;;;;;;;;;;;;;;4964950;28;19917;-70
2023/11/19 13:06:22;;;;;;;;;;;;;;;;;;4965500;28;19918;-72
2023/11/19 13:08:49;;;;;;;;;;;;;;;;;;4966518;28;20245;-72
2023/11/19 13:11:16;;;;;;;;;;;;;;;;;;4968513;28;19960;-71
2023/11/19 13:13:42;;;;;;;;;;;;;;;;;;4966706;28;19918;-72
2023/11/19 13:16:09;;;;;;;;;;;;;;;;;;4967451;28;19918;-71
2023/11/19 13:18:34;;;;;;;;;;;;;;;;;;4962575;28;20047;-72
2023/11/19 13:21:00;;;;;;;;;;;;;;;;;;4972634;28;20005;-72
2023/11/19 13:23:26;;;;;;;;;;;;;;;;;;4963583;28;20288;-72
2023/11/19 13:25:52;;;;;;;;;;;;;;;;;;4970444;28;19918;-69
2023/11/19 13:28:18;;;;;;;;;;;;;;;;;;4965327;28;19921;-67
2023/11/19 13:30:44;;;;;;;;;;;;;;;;;;4964222;28;20293;-69
2023/11/19 13:33:12;;;;;;;;;;;;;;;;;;4965187;28;19921;-68
2023/11/19 13:35:40;;;;;;;;;;;;;;;;;;4967136;28;19918;-69
2023/11/19 13:38:08;;;;;;;;;;;;;;;;;;4966866;28;19929;-69
2023/11/19 13:40:34;;;;;;;;;;;;;;;;;;4963132;28;19918;-69
2023/11/19 13:43:00;;;;;;;;;;;;;;;;;;4965978;28;19918;-69
2023/11/19 13:45:26;;;;;;;;;;;;;;;;;;4967574;28;20419;-69
2023/11/19 13:47:52;;;;;;;;;;;;;;;;;;4972406;28;19921;-67
2023/11/19 13:50:18;;;;;;;;;;;;;;;;;;4980818;28;19926;-68
2023/11/19 13:52:45;;;;;;;;;;;;;;;;;;4980772;28;20006;-69
2023/11/19 13:55:11;;;;;;;;;;;;;;;;;;4990755;28;19921;-70
2023/11/19 13:57:37;;;;;;;;;;;;;;;;;;4980658;28;19917;-67
2023/11/19 14:00:06;;;;;;;;;;;;;;;;;;4982715;28;19925;-67
2023/11/19 14:02:32;;;;;;;;;;;;;;;;;;4974021;28;20496;-68
2023/11/19 14:04:58;;;;;;;;;;;;;;;;;;4982389;28;19928;-67
2023/11/19 14:07:24;;;;;;;;;;;;;;;;;;4968309;28;19928;-68
2023/11/19 14:09:50;;;;;;;;;;;;;;;;;;4968812;28;19917;-68
2023/11/19 14:12:17;;;;;;;;;;;;;;;;;;4985243;28;19949;-68
2023/11/19 14:14:43;;;;;;;;;;;;;;;;;;4961082;28;20190;-68
2023/11/19 14:17:10;;;;;;;;;;;;;;;;;;4967717;28;19918;-68
2023/11/19 14:19:36;;;;;;;;;;;;;;;;;;4961739;28;19921;-68
2023/11/19 14:22:03;;;;;;;;;;;;;;;;;;4978907;28;20265;-68
2023/11/19 14:24:29;;;;;;;;;;;;;;;;;;4965266;28;19925;-70
2023/11/19 14:26:58;;;;;;;;;;;;;;;;;;4962855;28;20342;-70
2023/11/19 14:29:24;;;;;;;;;;;;;;;;;;4963219;28;20000;-69
2023/11/19 14:31:49;;;;;;;;;;;;;;;;;;4978351;28;20196;-69
2023/11/19 14:34:15;;;;;;;;;;;;;;;;;;4981234;28;20199;-70
2023/11/19 14:36:41;;;;;;;;;;;;;;;;;;4959418;28;19921;-69
2023/11/19 14:39:07;;;;;;;;;;;;;;;;;;4985829;28;20368;-70
2023/11/19 14:41:33;;;;;;;;;;;;;;;;;;4961046;28;19914;-70
2023/11/19 14:44:01;;;;;;;;;;;;;;;;;;4963594;28;19921;-70
2023/11/19 14:46:27;;;;;;;;;;;;;;;;;;4963066;28;19947;-68
2023/11/19 14:48:53;;;;;;;;;;;;;;;;;;4978633;28;20043;-68
2023/11/19 14:51:20;;;;;;;;;;;;;;;;;;4979151;28;19928;-68
2023/11/19 14:53:46;;;;;;;;;;;;;;;;;;4980784;28;20012;-68
2023/11/19 14:56:14;;;;;;;;;;;;;;;;;;4981121;28;19925;-70
2023/11/19 14:58:40;;;;;;;;;;;;;;;;;;4959615;28;20627;-68
2023/11/19 15:01:07;;;;;;;;;;;;;;;;;;4977430;28;19924;-68
2023/11/19 15:03:33;;;;;;;;;;;;;;;;;;4981042;28;20436;-68
2023/11/19 15:05:59;;;;;;;;;;;;;;;;;;4984996;28;19917;-69
2023/11/19 15:08:25;;;;;;;;;;;;;;;;;;4963375;28;19925;-68
2023/11/19 15:10:51;;;;;;;;;;;;;;;;;;4981097;28;19917;-68
2023/11/19 15:13:17;;;;;;;;;;;;;;;;;;4964006;28;19948;-68
2023/11/19 15:15:43;;;;;;;;;;;;;;;;;;4977088;28;20343;-67
2023/11/19 15:18:12;;;;;;;;;;;;;;;;;;4964089;28;20032;-71
2023/11/19 15:20:38;;;;;;;;;;;;;;;;;;4981598;28;19948;-70
2023/11/19 15:23:04;;;;;;;;;;;;;;;;;;4980784;28;20040;-69
2023/11/19 15:25:30;;;;;;;;;;;;;;;;;;4976577;28;20011;-70
2023/11/19 15:27:56;;;;;;;;;;;;;;;;;;4980738;28;20315;-71
2023/11/19 15:30:22;;;;;;;;;;;;;;;;;;4979227;28;19921;-70
2023/11/19 15:32:48;;;;;;;;;;;;;;;;;;4980873;28;19928;-70
2023/11/19 15:35:14;;;;;;;;;;;;;;;;;;4980723;28;19921;-67
2023/11/19 15:37:43;;;;;;;;;;;;;;;;;;4976610;28;21306;-68
2023/11/19 15:40:09;;;;;;;;;;;;;;;;;;4980853;28;20454;-71
2023/11/19 15:42:35;;;;;;;;;;;;;;;;;;4976143;28;19960;-70
2023/11/19 15:45:04;;;;;;;;;;;;;;;;;;4977615;28;20442;-68
2023/11/19 15:47:30;;;;;;;;;;;;;;;;;;4960195;28;20146;-68
2023/11/19 15:49:56;;;;;;;;;;;;;;;;;;4956806;28;19925;-70
2023/11/19 15:52:22;;;;;;;;;;;;;;;;;;4952598;28;20299;-70
2023/11/19 15:54:49;;;;;;;;;;;;;;;;;;4960539;28;19932;-70
2023/11/19 15:57:15;;;;;;;;;;;;;;;;;;4959870;28;20379;-70
2023/11/19 15:59:41;;;;;;;;;;;;;;;;;;4960085;28;21175;-70
2023/11/19 16:02:07;;;;;;;;;;;;;;;;;;4961482;28;19921;-68
2023/11/19 16:04:32;;;;;;;;;;;;;;;;;;4959545;28;19914;-70
2023/11/19 16:06:58;;;;;;;;;;;;;;;;;;4960118;28;19926;-69
2023/11/19 16:09:27;;;;;;;;;;;;;;;;;;4953333;28;19924;-69
2023/11/19 16:11:52;;;;;;;;;;;;;;;;;;4956585;28;19914;-67
2023/11/19 16:14:18;;;;;;;;;;;;;;;;;;4963427;28;19992;-66
2023/11/19 16:16:45;;;;;;;;;;;;;;;;;;4960970;28;19925;-66
2023/11/19 16:19:10;;;;;;;;;;;;;;;;;;4965142;28;19922;-68
2023/11/19 16:21:36;;;;;;;;;;;;;;;;;;4962767;28;19929;-66
2023/11/19 16:24:02;;;;;;;;;;;;;;;;;;4964935;28;19918;-66
2023/11/19 16:26:30;;;;;;;;;;;;;;;;;;4958285;28;19914;-66
2023/11/19 16:28:56;;;;;;;;;;;;;;;;;;4968967;28;19930;-67
2023/11/19 16:31:22;;;;;;;;;;;;;;;;;;4961819;28;20149;-67
2023/11/19 16:33:48;;;;;;;;;;;;;;;;;;4966194;28;19940;-66
2023/11/19 16:36:14;;;;;;;;;;;;;;;;;;4963243;28;20025;-67
2023/11/19 16:38:40;;;;;;;;;;;;;;;;;;4962885;28;20003;-66